sensor_id;sensor_type;location;lat;lon;timestamp;pressure;altitude;pressure_sealevel;temperature;humidity
7026;BME280;3554;42.132;24.786;2023-03-12T00:01:57;98228.81;;;8.40;100.00
7026;BME280;3554;42.132;24.786;2023-03-12T00:04:24;98218.25;;;8.43;100.00
7026;BME280;3554;42.132;24.786;2023-03-12T00:06:51;98222.44;;;8.46;100.00
7026;BME280;3554;42.132;24.786;2023-03-12T00:09:17;98238.41;;;8.40;100.00
7026;BME280;3554;42.132;24.786;2023-03-12T00:11:44;98234.19;;;8.37;100.00
7026;BME280;3554;42.132;24.786;2023-03-12T00:14:11;98231.75;;;8.34;100.00
7026;BME280;3554;42.132;24.786;2023-03-12T00:16:39;98243.22;;;8.30;100.00
7026;BME280;3554;42.132;24.786;2023-03-12T00:19:06;98236.97;;;8.34;100.00
7026;BME280;3554;42.132;24.786;2023-03-12T00:21:33;98254.94;;;8.22;100.00
7026;BME280;3554;42.132;24.786;2023-03-12T00:23:59;98247.84;;;8.25;100.00
7026;BME280;3554;42.132;24.786;2023-03-12T00:26:26;98258.34;;;8.22;100.00
7026;BME280;3554;42.132;24.786;2023-03-12T00:28:53;98252.97;;;8.27;100.00
7026;BME280;3554;42.132;24.786;2023-03-12T00:31:22;98257.53;;;8.22;100.00
7026;BME280;3554;42.132;24.786;2023-03-12T00:33:53;98268.31;;;8.14;100.00
7026;BME280;3554;42.132;24.786;2023-03-12T00:36:21;98248.63;;;8.09;100.00
7026;BME280;3554;42.132;24.786;2023-03-12T00:38:49;98242.19;;;7.99;100.00
7026;BME280;3554;42.132;24.786;2023-03-12T00:41:16;98223.75;;;7.85;100.00
7026;BME280;3554;42.132;24.786;2023-03-12T00:43:44;98233.47;;;7.81;100.00
7026;BME280;3554;42.132;24.786;2023-03-12T00:46:11;98244.03;;;7.78;100.00
7026;BME280;3554;42.132;24.786;2023-03-12T00:48:38;98216.19;;;7.62;100.00
7026;BME280;3554;42.132;24.786;2023-03-12T00:51:06;98249.28;;;7.59;100.00
7026;BME280;3554;42.132;24.786;2023-03-12T00:53:33;98214.94;;;7.51;100.00
7026;BME280;3554;42.132;24.786;2023-03-12T00:56:00;98224.94;;;7.42;100.00
7026;BME280;3554;42.132;24.786;2023-03-12T00:58:27;98251.38;;;7.51;100.00
7026;BME280;3554;42.132;24.786;2023-03-12T01:00:54;98240.88;;;7.53;100.00
7026;BME280;3554;42.132;24.786;2023-03-12T01:03:20;98250.81;;;7.45;100.00
7026;BME280;3554;42.132;24.786;2023-03-12T01:05:47;98258.47;;;7.48;100.00
7026;BME280;3554;42.132;24.786;2023-03-12T01:08:20;98253.34;;;7.46;100.00
7026;BME280;3554;42.132;24.786;2023-03-12T01:10:47;98269.31;;;7.39;100.00
7026;BME280;3554;42.132;24.786;2023-03-12T01:13:14;98263.13;;;7.41;100.00
7026;BME280;3554;42.132;24.786;2023-03-12T01:15:41;98243.13;;;7.23;100.00
7026;BME280;3554;42.132;24.786;2023-03-12T01:18:08;98282.53;;;7.34;100.00
7026;BME280;3554;42.132;24.786;2023-03-12T01:20:35;98279.88;;;7.36;100.00
7026;BME280;3554;42.132;24.786;2023-03-12T01:23:02;98267.97;;;7.30;100.00
7026;BME280;3554;42.132;24.786;2023-03-12T01:25:30;98275.28;;;7.22;100.00
7026;BME280;3554;42.132;24.786;2023-03-12T01:27:58;98269.25;;;7.22;100.00
7026;BME280;3554;42.132;24.786;2023-03-12T01:30:25;98283.19;;;7.21;100.00
7026;BME280;3554;42.132;24.786;2023-03-12T01:32:52;98289.59;;;7.12;100.00
7026;BME280;3554;42.132;24.786;2023-03-12T01:35:19;98310.34;;;7.14;100.00
7026;BME280;3554;42.132;24.786;2023-03-12T01:37:45;98303.94;;;7.02;100.00
7026;BME280;3554;42.132;24.786;2023-03-12T01:40:14;98307.47;;;7.01;100.00
7026;BME280;3554;42.132;24.786;2023-03-12T01:42:42;98324.19;;;6.96;100.00
7026;BME280;3554;42.132;24.786;2023-03-12T01:48:09;98330.88;;;6.81;100.00
7026;BME280;3554;42.132;24.786;2023-03-12T01:50:36;98332.44;;;6.85;100.00
7026;BME280;3554;42.132;24.786;2023-03-12T01:53:04;98344.72;;;6.82;100.00
7026;BME280;3554;42.132;24.786;2023-03-12T01:55:31;98349.97;;;6.80;100.00
7026;BME280;3554;42.132;24.786;2023-03-12T01:58:00;98333.91;;;6.71;100.00
7026;BME280;3554;42.132;24.786;2023-03-12T02:00:27;98351.19;;;6.72;100.00
7026;BME280;3554;42.132;24.786;2023-03-12T02:02:57;98333.06;;;6.70;100.00
7026;BME280;3554;42.132;24.786;2023-03-12T02:05:28;98346.38;;;6.63;100.00
7026;BME280;3554;42.132;24.786;2023-03-12T02:07:59;98350.84;;;6.59;100.00
7026;BME280;3554;42.132;24.786;2023-03-12T02:10:26;98369.19;;;6.56;100.00
7026;BME280;3554;42.132;24.786;2023-03-12T02:12:53;98349.63;;;6.47;100.00
7026;BME280;3554;42.132;24.786;2023-03-12T02:15:21;98361.81;;;6.45;100.00
7026;BME280;3554;42.132;24.786;2023-03-12T02:17:48;98386.78;;;6.49;100.00
7026;BME280;3554;42.132;24.786;2023-03-12T02:20:19;98391.31;;;6.44;100.00
7026;BME280;3554;42.132;24.786;2023-03-12T02:22:55;98386.06;;;6.46;100.00
7026;BME280;3554;42.132;24.786;2023-03-12T02:25:29;98382.06;;;6.37;100.00
7026;BME280;3554;42.132;24.786;2023-03-12T02:27:57;98289.47;;;5.93;100.00
7026;BME280;3554;42.132;24.786;2023-03-12T02:30:27;98395.47;;;6.27;100.00
7026;BME280;3554;42.132;24.786;2023-03-12T02:32:55;98390.41;;;6.24;100.00
7026;BME280;3554;42.132;24.786;2023-03-12T02:35:23;98402.53;;;6.23;100.00
7026;BME280;3554;42.132;24.786;2023-03-12T02:37:52;98403.97;;;6.09;100.00
7026;BME280;3554;42.132;24.786;2023-03-12T02:40:23;98415.00;;;6.15;100.00
7026;BME280;3554;42.132;24.786;2023-03-12T02:42:54;98420.19;;;6.15;100.00
7026;BME280;3554;42.132;24.786;2023-03-12T02:45:24;98403.06;;;6.10;100.00
7026;BME280;3554;42.132;24.786;2023-03-12T02:47:52;98415.47;;;6.03;100.00
7026;BME280;3554;42.132;24.786;2023-03-12T02:50:18;98455.25;;;6.04;100.00
7026;BME280;3554;42.132;24.786;2023-03-12T02:52:45;98438.66;;;6.08;100.00
7026;BME280;3554;42.132;24.786;2023-03-12T02:55:12;98443.78;;;6.09;100.00
7026;BME280;3554;42.132;24.786;2023-03-12T02:57:39;98475.41;;;5.97;100.00
7026;BME280;3554;42.132;24.786;2023-03-12T03:00:11;98464.84;;;6.02;100.00
7026;BME280;3554;42.132;24.786;2023-03-12T03:02:38;98467.00;;;5.91;100.00
7026;BME280;3554;42.132;24.786;2023-03-12T03:05:06;98478.75;;;6.01;100.00
7026;BME280;3554;42.132;24.786;2023-03-12T03:07:33;98493.41;;;6.02;100.00
7026;BME280;3554;42.132;24.786;2023-03-12T03:10:00;98487.47;;;5.98;100.00
7026;BME280;3554;42.132;24.786;2023-03-12T03:12:28;98490.19;;;5.95;100.00
7026;BME280;3554;42.132;24.786;2023-03-12T03:14:55;98472.41;;;5.85;100.00
7026;BME280;3554;42.132;24.786;2023-03-12T03:17:23;98487.78;;;5.91;100.00
7026;BME280;3554;42.132;24.786;2023-03-12T03:19:50;98495.50;;;5.92;100.00
7026;BME280;3554;42.132;24.786;2023-03-12T03:22:18;98488.91;;;5.84;100.00
7026;BME280;3554;42.132;24.786;2023-03-12T03:24:45;98505.50;;;5.78;100.00
7026;BME280;3554;42.132;24.786;2023-03-12T03:27:12;98486.47;;;5.78;100.00
7026;BME280;3554;42.132;24.786;2023-03-12T03:29:39;98505.72;;;5.72;100.00
7026;BME280;3554;42.132;24.786;2023-03-12T03:32:06;98496.19;;;5.73;100.00
7026;BME280;3554;42.132;24.786;2023-03-12T03:34:35;98483.25;;;5.71;100.00
7026;BME280;3554;42.132;24.786;2023-03-12T03:37:01;98500.59;;;5.71;100.00
7026;BME280;3554;42.132;24.786;2023-03-12T03:39:28;98519.56;;;5.73;100.00
7026;BME280;3554;42.132;24.786;2023-03-12T03:41:55;98513.28;;;5.78;100.00
7026;BME280;3554;42.132;24.786;2023-03-12T03:44:22;98519.50;;;5.74;100.00
7026;BME280;3554;42.132;24.786;2023-03-12T03:46:48;98503.06;;;5.74;100.00
7026;BME280;3554;42.132;24.786;2023-03-12T03:49:15;98529.88;;;5.74;100.00
7026;BME280;3554;42.132;24.786;2023-03-12T03:51:44;98525.69;;;5.70;100.00
7026;BME280;3554;42.132;24.786;2023-03-12T03:54:11;98515.53;;;5.64;100.00
7026;BME280;3554;42.132;24.786;2023-03-12T03:56:39;98519.00;;;5.63;100.00
7026;BME280;3554;42.132;24.786;2023-03-12T03:59:06;98524.19;;;5.63;100.00
7026;BME280;3554;42.132;24.786;2023-03-12T04:01:32;98518.16;;;5.63;100.00
7026;BME280;3554;42.132;24.786;2023-03-12T04:04:01;98529.38;;;5.63;100.00
7026;BME280;3554;42.132;24.786;2023-03-12T04:06:28;98526.97;;;5.59;100.00
7026;BME280;3554;42.132;24.786;2023-03-12T04:08:57;98550.38;;;5.57;100.00
7026;BME280;3554;42.132;24.786;2023-03-12T04:11:24;98544.28;;;5.58;100.00
7026;BME280;3554;42.132;24.786;2023-03-12T04:13:51;98559.66;;;5.64;100.00
7026;BME280;3554;42.132;24.786;2023-03-12T04:16:18;98565.59;;;5.68;100.00
7026;BME280;3554;42.132;24.786;2023-03-12T04:18:45;98523.28;;;5.39;100.00
7026;BME280;3554;42.132;24.786;2023-03-12T04:21:12;98583.75;;;5.68;100.00
7026;BME280;3554;42.132;24.786;2023-03-12T04:23:40;98571.44;;;5.48;100.00
7026;BME280;3554;42.132;24.786;2023-03-12T04:26:08;98577.09;;;5.59;100.00
7026;BME280;3554;42.132;24.786;2023-03-12T04:28:35;98567.75;;;5.55;100.00
7026;BME280;3554;42.132;24.786;2023-03-12T04:31:04;98583.16;;;5.60;100.00
7026;BME280;3554;42.132;24.786;2023-03-12T04:33:33;98592.72;;;5.58;100.00
7026;BME280;3554;42.132;24.786;2023-03-12T04:36:00;98580.72;;;5.55;100.00
7026;BME280;3554;42.132;24.786;2023-03-12T04:38:27;98564.47;;;5.48;100.00
7026;BME280;3554;42.132;24.786;2023-03-12T04:40:58;98582.53;;;5.53;100.00
7026;BME280;3554;42.132;24.786;2023-03-12T04:43:27;98598.63;;;5.63;100.00
7026;BME280;3554;42.132;24.786;2023-03-12T04:45:54;98612.38;;;5.65;100.00
7026;BME280;3554;42.132;24.786;2023-03-12T04:48:21;98589.31;;;5.57;100.00
7026;BME280;3554;42.132;24.786;2023-03-12T04:50:48;98569.22;;;5.37;100.00
7026;BME280;3554;42.132;24.786;2023-03-12T04:53:15;98614.06;;;5.67;100.00
7026;BME280;3554;42.132;24.786;2023-03-12T04:55:41;98625.28;;;5.68;100.00
7026;BME280;3554;42.132;24.786;2023-03-12T04:58:08;98627.84;;;5.69;100.00
7026;BME280;3554;42.132;24.786;2023-03-12T05:00:38;98635.66;;;5.68;100.00
7026;BME280;3554;42.132;24.786;2023-03-12T05:03:05;98640.88;;;5.68;100.00
7026;BME280;3554;42.132;24.786;2023-03-12T05:05:32;98645.16;;;5.69;100.00
7026;BME280;3554;42.132;24.786;2023-03-12T05:08:00;98645.78;;;5.75;100.00
7026;BME280;3554;42.132;24.786;2023-03-12T05:10:27;98658.69;;;5.78;100.00
7026;BME280;3554;42.132;24.786;2023-03-12T05:12:53;98651.63;;;5.82;100.00
7026;BME280;3554;42.132;24.786;2023-03-12T05:15:20;98668.75;;;5.89;100.00
7026;BME280;3554;42.132;24.786;2023-03-12T05:17:49;98660.59;;;5.99;100.00
7026;BME280;3554;42.132;24.786;2023-03-12T05:20:16;98660.91;;;6.15;100.00
7026;BME280;3554;42.132;24.786;2023-03-12T05:22:43;98674.16;;;6.32;100.00
7026;BME280;3554;42.132;24.786;2023-03-12T05:25:10;98637.97;;;6.27;100.00
7026;BME280;3554;42.132;24.786;2023-03-12T05:27:37;98658.44;;;6.36;100.00
7026;BME280;3554;42.132;24.786;2023-03-12T05:30:05;98640.75;;;6.21;100.00
7026;BME280;3554;42.132;24.786;2023-03-12T05:32:33;98667.16;;;6.34;100.00
7026;BME280;3554;42.132;24.786;2023-03-12T05:35:01;98671.53;;;6.33;100.00
7026;BME280;3554;42.132;24.786;2023-03-12T05:37:29;98688.66;;;6.39;100.00
7026;BME280;3554;42.132;24.786;2023-03-12T05:39:56;98685.56;;;6.53;100.00
7026;BME280;3554;42.132;24.786;2023-03-12T05:42:23;98690.88;;;6.49;100.00
7026;BME280;3554;42.132;24.786;2023-03-12T05:44:50;98694.78;;;6.61;100.00
7026;BME280;3554;42.132;24.786;2023-03-12T05:47:16;98698.00;;;6.68;100.00
7026;BME280;3554;42.132;24.786;2023-03-12T05:49:43;98699.41;;;6.78;100.00
7026;BME280;3554;42.132;24.786;2023-03-12T05:52:12;98708.88;;;6.79;100.00
7026;BME280;3554;42.132;24.786;2023-03-12T05:54:38;98699.59;;;6.72;100.00
7026;BME280;3554;42.132;24.786;2023-03-12T05:57:05;98708.81;;;6.80;100.00
7026;BME280;3554;42.132;24.786;2023-03-12T05:59:33;98728.81;;;7.03;100.00
7026;BME280;3554;42.132;24.786;2023-03-12T06:02:00;98725.03;;;7.11;100.00
7026;BME280;3554;42.132;24.786;2023-03-12T06:04:27;98719.56;;;7.17;100.00
7026;BME280;3554;42.132;24.786;2023-03-12T06:06:54;98718.34;;;7.27;100.00
7026;BME280;3554;42.132;24.786;2023-03-12T06:09:22;98731.22;;;7.30;100.00
7026;BME280;3554;42.132;24.786;2023-03-12T06:11:48;98732.75;;;7.36;100.00
7026;BME280;3554;42.132;24.786;2023-03-12T06:14:15;98745.03;;;7.32;100.00
7026;BME280;3554;42.132;24.786;2023-03-12T06:16:42;98696.56;;;7.07;100.00
7026;BME280;3554;42.132;24.786;2023-03-12T06:19:10;98748.56;;;7.31;100.00
7026;BME280;3554;42.132;24.786;2023-03-12T06:21:38;98750.91;;;7.37;100.00
7026;BME280;3554;42.132;24.786;2023-03-12T06:24:06;98759.72;;;7.35;100.00
7026;BME280;3554;42.132;24.786;2023-03-12T06:26:34;98752.53;;;7.63;100.00
7026;BME280;3554;42.132;24.786;2023-03-12T06:29:01;98769.19;;;7.59;99.90
7026;BME280;3554;42.132;24.786;2023-03-12T06:31:28;98769.91;;;7.63;99.90
7026;BME280;3554;42.132;24.786;2023-03-12T06:33:54;98766.34;;;7.65;97.49
7026;BME280;3554;42.132;24.786;2023-03-12T06:36:21;98802.22;;;7.80;97.72
7026;BME280;3554;42.132;24.786;2023-03-12T06:38:49;98805.84;;;7.98;96.35
7026;BME280;3554;42.132;24.786;2023-03-12T06:41:17;98805.91;;;7.96;97.06
7026;BME280;3554;42.132;24.786;2023-03-12T06:43:46;98798.22;;;7.93;90.20
7026;BME280;3554;42.132;24.786;2023-03-12T06:46:15;98806.19;;;7.90;92.62
7026;BME280;3554;42.132;24.786;2023-03-12T06:48:42;98814.81;;;8.12;93.23
7026;BME280;3554;42.132;24.786;2023-03-12T06:51:12;98822.88;;;8.29;94.35
7026;BME280;3554;42.132;24.786;2023-03-12T06:53:39;98811.09;;;8.41;92.60
7026;BME280;3554;42.132;24.786;2023-03-12T06:56:06;98820.72;;;8.39;92.88
7026;BME280;3554;42.132;24.786;2023-03-12T06:58:33;98795.75;;;8.33;89.58
7026;BME280;3554;42.132;24.786;2023-03-12T07:01:01;98787.41;;;8.25;91.23
7026;BME280;3554;42.132;24.786;2023-03-12T07:03:28;98829.56;;;8.35;92.18
7026;BME280;3554;42.132;24.786;2023-03-12T07:05:55;98811.63;;;8.49;90.98
7026;BME280;3554;42.132;24.786;2023-03-12T07:08:23;98776.97;;;8.04;90.02
7026;BME280;3554;42.132;24.786;2023-03-12T07:10:50;98822.19;;;8.46;90.66
7026;BME280;3554;42.132;24.786;2023-03-12T07:13:17;98808.69;;;8.56;89.73
7026;BME280;3554;42.132;24.786;2023-03-12T07:15:44;98807.13;;;8.73;91.14
7026;BME280;3554;42.132;24.786;2023-03-12T07:18:12;98815.81;;;8.73;91.04
7026;BME280;3554;42.132;24.786;2023-03-12T07:20:42;98813.84;;;8.58;88.50
7026;BME280;3554;42.132;24.786;2023-03-12T07:23:11;98792.66;;;8.65;87.14
7026;BME280;3554;42.132;24.786;2023-03-12T07:25:40;98781.81;;;8.54;87.63
7026;BME280;3554;42.132;24.786;2023-03-12T07:28:08;98789.81;;;8.72;85.86
7026;BME280;3554;42.132;24.786;2023-03-12T07:30:35;98810.53;;;8.75;82.01
7026;BME280;3554;42.132;24.786;2023-03-12T07:33:03;98825.56;;;8.90;78.33
7026;BME280;3554;42.132;24.786;2023-03-12T07:35:32;98831.94;;;8.83;67.31
7026;BME280;3554;42.132;24.786;2023-03-12T07:37:59;98824.16;;;8.81;64.31
7026;BME280;3554;42.132;24.786;2023-03-12T07:40:26;98839.75;;;9.03;63.50
7026;BME280;3554;42.132;24.786;2023-03-12T07:42:53;98830.75;;;9.10;60.59
7026;BME280;3554;42.132;24.786;2023-03-12T07:45:21;98786.81;;;8.81;58.65
7026;BME280;3554;42.132;24.786;2023-03-12T07:47:48;98821.03;;;9.13;60.29
7026;BME280;3554;42.132;24.786;2023-03-12T07:50:15;98852.66;;;9.26;58.27
7026;BME280;3554;42.132;24.786;2023-03-12T07:52:44;98802.50;;;9.19;59.38
7026;BME280;3554;42.132;24.786;2023-03-12T07:55:11;98843.31;;;9.40;57.17
7026;BME280;3554;42.132;24.786;2023-03-12T07:57:38;98850.66;;;9.32;56.62
7026;BME280;3554;42.132;24.786;2023-03-12T08:00:06;98859.91;;;9.39;56.74
7026;BME280;3554;42.132;24.786;2023-03-12T08:02:34;98867.28;;;9.30;57.83
7026;BME280;3554;42.132;24.786;2023-03-12T08:05:01;98862.84;;;9.52;59.78
7026;BME280;3554;42.132;24.786;2023-03-12T08:07:29;98881.53;;;9.61;60.17
7026;BME280;3554;42.132;24.786;2023-03-12T08:09:58;98809.00;;;9.29;58.80
7026;BME280;3554;42.132;24.786;2023-03-12T08:12:25;98881.13;;;9.70;58.23
7026;BME280;3554;42.132;24.786;2023-03-12T08:14:51;98865.28;;;9.75;58.28
7026;BME280;3554;42.132;24.786;2023-03-12T08:17:18;98858.97;;;9.79;56.96
7026;BME280;3554;42.132;24.786;2023-03-12T08:19:45;98854.88;;;9.92;57.15
7026;BME280;3554;42.132;24.786;2023-03-12T08:22:12;98850.91;;;10.02;60.46
7026;BME280;3554;42.132;24.786;2023-03-12T08:24:39;98851.63;;;10.06;57.21
7026;BME280;3554;42.132;24.786;2023-03-12T08:27:07;98813.75;;;9.96;55.49
7026;BME280;3554;42.132;24.786;2023-03-12T08:29:36;98835.81;;;9.90;53.87
7026;BME280;3554;42.132;24.786;2023-03-12T08:32:04;98811.09;;;9.79;52.04
7026;BME280;3554;42.132;24.786;2023-03-12T08:34:31;98836.09;;;9.84;53.56
7026;BME280;3554;42.132;24.786;2023-03-12T08:36:58;98858.75;;;10.02;54.42
7026;BME280;3554;42.132;24.786;2023-03-12T08:39:24;98844.06;;;10.00;54.64
7026;BME280;3554;42.132;24.786;2023-03-12T08:41:51;98829.88;;;10.05;53.72
7026;BME280;3554;42.132;24.786;2023-03-12T08:44:21;98833.59;;;9.81;54.68
7026;BME280;3554;42.132;24.786;2023-03-12T08:46:48;98858.19;;;9.96;53.73
7026;BME280;3554;42.132;24.786;2023-03-12T08:49:15;98858.72;;;10.04;56.36
7026;BME280;3554;42.132;24.786;2023-03-12T08:51:42;98860.16;;;10.11;53.28
7026;BME280;3554;42.132;24.786;2023-03-12T08:54:08;98877.34;;;9.96;52.38
7026;BME280;3554;42.132;24.786;2023-03-12T08:56:35;98845.00;;;9.80;52.90
7026;BME280;3554;42.132;24.786;2023-03-12T08:59:06;98875.16;;;10.06;52.11
7026;BME280;3554;42.132;24.786;2023-03-12T09:01:34;98868.47;;;10.00;47.60
7026;BME280;3554;42.132;24.786;2023-03-12T09:04:01;98824.84;;;10.01;46.92
7026;BME280;3554;42.132;24.786;2023-03-12T09:06:28;98859.84;;;10.17;45.91
7026;BME280;3554;42.132;24.786;2023-03-12T09:08:55;98862.06;;;10.06;46.72
7026;BME280;3554;42.132;24.786;2023-03-12T09:11:22;98861.47;;;9.82;46.61
7026;BME280;3554;42.132;24.786;2023-03-12T09:13:49;98863.94;;;9.85;48.09
7026;BME280;3554;42.132;24.786;2023-03-12T09:16:15;98861.53;;;9.99;47.64
7026;BME280;3554;42.132;24.786;2023-03-12T09:18:44;98852.78;;;10.19;50.07
7026;BME280;3554;42.132;24.786;2023-03-12T09:21:10;98868.66;;;10.33;51.51
7026;BME280;3554;42.132;24.786;2023-03-12T09:23:37;98848.94;;;10.61;49.89
7026;BME280;3554;42.132;24.786;2023-03-12T09:26:08;98860.09;;;10.65;48.76
7026;BME280;3554;42.132;24.786;2023-03-12T09:28:34;98862.72;;;10.65;47.08
7026;BME280;3554;42.132;24.786;2023-03-12T09:31:02;98866.53;;;10.76;48.41
7026;BME280;3554;42.132;24.786;2023-03-12T09:33:29;98867.00;;;10.49;48.93
7026;BME280;3554;42.132;24.786;2023-03-12T09:35:57;98869.97;;;10.60;44.44
7026;BME280;3554;42.132;24.786;2023-03-12T09:38:24;98881.84;;;10.48;46.23
7026;BME280;3554;42.132;24.786;2023-03-12T09:40:52;98881.47;;;10.56;48.86
7026;BME280;3554;42.132;24.786;2023-03-12T09:43:23;98852.63;;;10.57;47.84
7026;BME280;3554;42.132;24.786;2023-03-12T09:45:51;98882.81;;;10.64;48.15
7026;BME280;3554;42.132;24.786;2023-03-12T09:48:24;98888.16;;;10.80;47.23
7026;BME280;3554;42.132;24.786;2023-03-12T09:50:54;98892.28;;;10.84;47.04
7026;BME280;3554;42.132;24.786;2023-03-12T09:53:27;98902.19;;;10.96;48.11
7026;BME280;3554;42.132;24.786;2023-03-12T09:55:57;98806.53;;;10.72;48.76
7026;BME280;3554;42.132;24.786;2023-03-12T09:58:26;98886.84;;;10.89;50.40
7026;BME280;3554;42.132;24.786;2023-03-12T10:00:59;98886.69;;;10.92;48.79
7026;BME280;3554;42.132;24.786;2023-03-12T10:03:41;98900.28;;;11.00;49.19
7026;BME280;3554;42.132;24.786;2023-03-12T10:06:15;98897.69;;;10.81;49.13
7026;BME280;3554;42.132;24.786;2023-03-12T10:08:53;98895.84;;;10.66;49.39
7026;BME280;3554;42.132;24.786;2023-03-12T10:11:31;98892.81;;;10.73;50.73
7026;BME280;3554;42.132;24.786;2023-03-12T10:14:16;98908.97;;;10.64;48.31
7026;BME280;3554;42.132;24.786;2023-03-12T10:16:55;98907.56;;;10.76;49.43
7026;BME280;3554;42.132;24.786;2023-03-12T10:19:36;98906.22;;;10.67;52.10
7026;BME280;3554;42.132;24.786;2023-03-12T10:22:15;98906.56;;;10.78;51.38
7026;BME280;3554;42.132;24.786;2023-03-12T10:24:54;98916.38;;;10.56;49.92
7026;BME280;3554;42.132;24.786;2023-03-12T10:27:28;98901.13;;;10.64;50.05
7026;BME280;3554;42.132;24.786;2023-03-12T10:29:56;98930.81;;;10.82;47.83
7026;BME280;3554;42.132;24.786;2023-03-12T10:32:37;98931.97;;;11.11;51.00
7026;BME280;3554;42.132;24.786;2023-03-12T10:35:14;98927.38;;;11.33;48.25
7026;BME280;3554;42.132;24.786;2023-03-12T10:37:44;98927.06;;;11.22;49.73
7026;BME280;3554;42.132;24.786;2023-03-12T10:40:16;98913.50;;;11.31;53.39
7026;BME280;3554;42.132;24.786;2023-03-12T10:42:43;98906.72;;;11.44;51.80
7026;BME280;3554;42.132;24.786;2023-03-12T10:45:20;98919.28;;;11.54;49.08
7026;BME280;3554;42.132;24.786;2023-03-12T10:47:49;98886.41;;;11.32;48.70
7026;BME280;3554;42.132;24.786;2023-03-12T10:50:18;98909.97;;;11.32;49.14
7026;BME280;3554;42.132;24.786;2023-03-12T10:52:46;98901.50;;;11.10;49.98
7026;BME280;3554;42.132;24.786;2023-03-12T10:55:21;98905.25;;;11.04;53.93
7026;BME280;3554;42.132;24.786;2023-03-12T10:57:49;98901.88;;;11.02;54.62
7026;BME280;3554;42.132;24.786;2023-03-12T11:00:19;98914.59;;;11.10;54.03
7026;BME280;3554;42.132;24.786;2023-03-12T11:02:55;98914.09;;;10.85;50.30
7026;BME280;3554;42.132;24.786;2023-03-12T11:05:24;98918.97;;;11.09;53.02
7026;BME280;3554;42.132;24.786;2023-03-12T11:07:52;98900.63;;;11.09;51.69
7026;BME280;3554;42.132;24.786;2023-03-12T11:10:25;98902.19;;;11.13;53.28
7026;BME280;3554;42.132;24.786;2023-03-12T11:13:00;98921.38;;;11.31;52.71
7026;BME280;3554;42.132;24.786;2023-03-12T11:15:29;98922.00;;;11.19;48.75
7026;BME280;3554;42.132;24.786;2023-03-12T11:18:29;98916.19;;;11.46;49.52
7026;BME280;3554;42.132;24.786;2023-03-12T11:21:11;98913.13;;;11.38;51.41
7026;BME280;3554;42.132;24.786;2023-03-12T11:23:39;98917.19;;;11.44;50.62
7026;BME280;3554;42.132;24.786;2023-03-12T11:26:16;98918.13;;;11.60;49.55
7026;BME280;3554;42.132;24.786;2023-03-12T11:28:46;98911.75;;;11.31;49.00
7026;BME280;3554;42.132;24.786;2023-03-12T11:31:19;98890.31;;;11.23;49.52
7026;BME280;3554;42.132;24.786;2023-03-12T11:33:47;98898.56;;;11.33;52.81
7026;BME280;3554;42.132;24.786;2023-03-12T11:39:13;98901.66;;;11.41;51.99
7026;BME280;3554;42.132;24.786;2023-03-12T11:41:59;98903.84;;;11.48;51.05
7026;BME280;3554;42.132;24.786;2023-03-12T11:44:36;98898.47;;;11.34;52.28
7026;BME280;3554;42.132;24.786;2023-03-12T11:47:29;98899.78;;;11.26;54.86
7026;BME280;3554;42.132;24.786;2023-03-12T11:50:08;98888.72;;;11.21;50.65
7026;BME280;3554;42.132;24.786;2023-03-12T11:52:48;98906.97;;;11.22;50.44
7026;BME280;3554;42.132;24.786;2023-03-12T11:55:25;98904.56;;;11.35;49.61
7026;BME280;3554;42.132;24.786;2023-03-12T11:58:12;98895.44;;;11.59;50.62
7026;BME280;3554;42.132;24.786;2023-03-12T12:00:48;98882.06;;;11.31;49.15
7026;BME280;3554;42.132;24.786;2023-03-12T12:06:21;98898.94;;;11.42;49.25
7026;BME280;3554;42.132;24.786;2023-03-12T12:09:10;98895.31;;;11.45;49.20
7026;BME280;3554;42.132;24.786;2023-03-12T12:11:51;98857.09;;;11.24;48.41
7026;BME280;3554;42.132;24.786;2023-03-12T12:14:34;98898.78;;;11.45;47.28
7026;BME280;3554;42.132;24.786;2023-03-12T12:17:15;98906.56;;;11.47;46.00
7026;BME280;3554;42.132;24.786;2023-03-12T12:19:58;98897.78;;;11.48;45.55
7026;BME280;3554;42.132;24.786;2023-03-12T12:22:37;98906.69;;;11.61;46.49
7026;BME280;3554;42.132;24.786;2023-03-12T12:25:27;98900.22;;;11.68;47.49
7026;BME280;3554;42.132;24.786;2023-03-12T12:31:00;98895.16;;;11.65;49.55
7026;BME280;3554;42.132;24.786;2023-03-12T12:33:39;98897.69;;;11.66;48.62
7026;BME280;3554;42.132;24.786;2023-03-12T12:36:11;98909.00;;;11.50;47.77
7026;BME280;3554;42.132;24.786;2023-03-12T12:38:41;98899.84;;;11.58;47.81
7026;BME280;3554;42.132;24.786;2023-03-12T12:41:13;98898.28;;;11.71;48.22
7026;BME280;3554;42.132;24.786;2023-03-12T12:43:44;98906.69;;;11.78;47.38
7026;BME280;3554;42.132;24.786;2023-03-12T12:46:17;98845.63;;;11.59;46.96
7026;BME280;3554;42.132;24.786;2023-03-12T12:48:47;98900.41;;;11.98;47.57
7026;BME280;3554;42.132;24.786;2023-03-12T12:51:18;98913.84;;;12.07;47.17
7026;BME280;3554;42.132;24.786;2023-03-12T12:53:52;98917.72;;;12.00;44.86
7026;BME280;3554;42.132;24.786;2023-03-12T12:56:26;98920.03;;;12.06;45.06
7026;BME280;3554;42.132;24.786;2023-03-12T13:01:53;98907.97;;;12.19;43.84
7026;BME280;3554;42.132;24.786;2023-03-12T13:04:24;98902.06;;;11.99;42.83
7026;BME280;3554;42.132;24.786;2023-03-12T13:06:54;98918.44;;;12.19;43.95
7026;BME280;3554;42.132;24.786;2023-03-12T13:09:33;98902.66;;;12.04;43.15
7026;BME280;3554;42.132;24.786;2023-03-12T13:12:07;98907.50;;;12.11;43.20
7026;BME280;3554;42.132;24.786;2023-03-12T13:14:39;98894.03;;;12.02;42.29
7026;BME280;3554;42.132;24.786;2023-03-12T13:17:26;98904.78;;;12.13;43.58
7026;BME280;3554;42.132;24.786;2023-03-12T13:19:58;98926.06;;;12.24;42.89
7026;BME280;3554;42.132;24.786;2023-03-12T13:22:39;98914.38;;;12.29;41.52
7026;BME280;3554;42.132;24.786;2023-03-12T13:25:21;98923.88;;;12.47;42.63
7026;BME280;3554;42.132;24.786;2023-03-12T13:27:57;98925.66;;;12.47;41.92
7026;BME280;3554;42.132;24.786;2023-03-12T13:30:47;98933.94;;;12.55;41.37
7026;BME280;3554;42.132;24.786;2023-03-12T13:33:17;98942.50;;;12.58;41.86
7026;BME280;3554;42.132;24.786;2023-03-12T13:36:04;98929.28;;;12.60;41.69
7026;BME280;3554;42.132;24.786;2023-03-12T13:38:35;98938.25;;;12.56;41.58
7026;BME280;3554;42.132;24.786;2023-03-12T13:41:04;98921.41;;;12.29;41.96